Los Angeles, California
Traffic Map
Current Weather Conditions
Los Angeles, California
Clear
Clear
77°
Feels Like: 77°
Wind Chill: 77° Ceiling: Unl
Heat Index: 77° Visibility: 10mi
Dew Point: 10° Wind: 5mph
Humidity: 8% Direction: ° ()
Pressure: 30.05in Gusts: 0mph
Raw Report DataKCQT 232347Z AUTO VRB04KT 10SM CLR 25/M12 A3005 RMK AO2 SLP172 T02501122 10267 20194 56005
Traffic Incident Summary
Active as of:
Severity:
Category:
InformationThere was an issue retrieving the traffic information for this location. Please try a different location or try again shortly.
Advertisements
Track Severe Weather on mobile